createdAt,value
2024-02-24T00:01:59.144Z,99.90
2024-02-24T00:04:27.244Z,99.90
2024-02-24T00:06:55.274Z,99.90
2024-02-24T00:09:24.621Z,99.90
2024-02-24T00:11:52.820Z,99.90
2024-02-24T00:14:20.957Z,99.90
2024-02-24T00:16:49.036Z,99.90
2024-02-24T00:19:17.536Z,99.90
2024-02-24T00:21:45.576Z,99.90
2024-02-24T00:24:13.632Z,99.90
2024-02-24T00:26:43.179Z,99.90
2024-02-24T00:29:11.244Z,99.90
2024-02-24T00:31:39.662Z,99.90
2024-02-24T00:34:07.756Z,99.90
2024-02-24T00:36:36.601Z,99.90
2024-02-24T00:39:04.650Z,99.90
2024-02-24T00:41:32.774Z,99.90
2024-02-24T00:44:02.240Z,99.90
2024-02-24T00:46:30.308Z,99.90
2024-02-24T00:48:58.268Z,99.90
2024-02-24T00:51:26.355Z,99.90
2024-02-24T00:53:54.452Z,99.90
2024-02-24T00:56:23.466Z,99.90
2024-02-24T00:58:53.577Z,99.90
2024-02-24T01:01:22.989Z,99.90
2024-02-24T01:03:50.989Z,99.90
2024-02-24T01:06:19.024Z,99.90
2024-02-24T01:08:47.115Z,99.90
2024-02-24T01:11:15.644Z,99.90
2024-02-24T01:13:44.629Z,99.90
2024-02-24T01:16:13.071Z,99.90
2024-02-24T01:18:42.888Z,99.90
2024-02-24T01:21:10.982Z,99.90
2024-02-24T01:23:40.788Z,99.90
2024-02-24T01:26:08.908Z,99.90
2024-02-24T01:28:37.982Z,99.90
2024-02-24T01:31:06.291Z,99.90
2024-02-24T01:33:34.401Z,99.90
2024-02-24T01:36:03.873Z,99.90
2024-02-24T01:38:31.952Z,99.90
2024-02-24T01:40:59.943Z,99.90
2024-02-24T01:43:30.487Z,99.90
2024-02-24T01:45:58.894Z,99.90
2024-02-24T01:48:26.979Z,99.90
2024-02-24T01:50:58.581Z,99.90
2024-02-24T01:53:29.571Z,99.90
2024-02-24T01:55:58.322Z,99.90
2024-02-24T01:58:27.395Z,99.90
2024-02-24T02:00:55.490Z,99.90
2024-02-24T02:03:23.931Z,99.90
2024-02-24T02:05:52.151Z,99.90
2024-02-24T02:08:20.304Z,99.90
2024-02-24T02:10:52.763Z,99.90
2024-02-24T02:13:21.115Z,99.90
2024-02-24T02:15:51.740Z,99.90
2024-02-24T02:18:20.022Z,99.90
2024-02-24T02:20:50.981Z,99.90
2024-02-24T02:23:20.692Z,99.90
2024-02-24T02:25:48.787Z,99.90
2024-02-24T02:28:16.844Z,99.90
2024-02-24T02:30:44.964Z,99.90
2024-02-24T02:33:12.980Z,99.90
2024-02-24T02:35:41.071Z,99.90
2024-02-24T02:38:11.543Z,99.90
2024-02-24T02:40:40.873Z,99.90
2024-02-24T02:43:08.839Z,99.90
2024-02-24T02:45:36.860Z,99.90
2024-02-24T02:48:05.495Z,99.90
2024-02-24T02:50:33.715Z,99.90
2024-02-24T02:53:01.697Z,99.90
2024-02-24T02:55:29.657Z,99.90
2024-02-24T02:57:59.016Z,99.90
2024-02-24T03:00:27.045Z,99.90
2024-02-24T03:02:55.209Z,99.90
2024-02-24T03:05:23.361Z,99.90
2024-02-24T03:07:51.478Z,99.90
2024-02-24T03:10:19.663Z,99.90
2024-02-24T03:12:47.663Z,99.90
2024-02-24T03:15:17.215Z,99.90
2024-02-24T03:17:45.286Z,99.90
2024-02-24T03:20:15.943Z,99.90
2024-02-24T03:22:44.856Z,99.90
2024-02-24T03:25:12.847Z,99.90
2024-02-24T03:27:40.854Z,99.90
2024-02-24T03:30:10.146Z,99.90
2024-02-24T03:32:39.574Z,99.90
2024-02-24T03:35:08.940Z,99.90
2024-02-24T03:37:36.954Z,99.90
2024-02-24T03:40:07.388Z,99.90
2024-02-24T03:42:35.503Z,99.90
2024-02-24T03:45:04.331Z,99.90
2024-02-24T03:47:32.451Z,99.90
2024-02-24T03:50:01.872Z,99.90
2024-02-24T03:52:30.152Z,99.90
2024-02-24T03:54:59.322Z,99.90
2024-02-24T03:57:27.250Z,99.90
2024-02-24T03:59:56.256Z,99.90
2024-02-24T04:02:24.600Z,99.90
2024-02-24T04:04:53.325Z,99.90
2024-02-24T04:07:22.915Z,99.90
2024-02-24T04:09:50.918Z,99.90
2024-02-24T04:12:19.188Z,99.90
2024-02-24T04:14:47.542Z,99.90
2024-02-24T04:17:15.556Z,99.90
2024-02-24T04:19:43.564Z,99.90
2024-02-24T04:22:11.560Z,99.90
2024-02-24T04:24:42.176Z,99.90
2024-02-24T04:27:10.174Z,99.90
2024-02-24T04:29:38.313Z,99.90
2024-02-24T04:32:06.834Z,99.90
2024-02-24T04:34:37.074Z,99.90
2024-02-24T04:37:05.282Z,99.90
2024-02-24T04:39:33.249Z,99.90
2024-02-24T04:42:02.553Z,99.90
2024-02-24T04:44:30.735Z,99.90
2024-02-24T04:46:58.818Z,99.90
2024-02-24T04:49:26.842Z,99.90
2024-02-24T04:51:54.841Z,99.90
2024-02-24T04:54:24.303Z,99.90
2024-02-24T04:56:52.440Z,99.90
2024-02-24T04:59:21.946Z,99.90
2024-02-24T05:01:49.976Z,99.90
2024-02-24T05:04:18.048Z,99.90
2024-02-24T05:06:46.166Z,99.90
2024-02-24T05:09:14.349Z,99.90
2024-02-24T05:11:42.812Z,99.90
2024-02-24T05:14:10.872Z,99.90
2024-02-24T05:16:42.801Z,99.90
2024-02-24T05:19:11.060Z,99.90
2024-02-24T05:21:39.293Z,99.90
2024-02-24T05:24:08.236Z,99.90
2024-02-24T05:26:36.239Z,99.90
2024-02-24T05:29:04.389Z,99.90
2024-02-24T05:31:32.334Z,99.90
2024-02-24T05:34:02.295Z,99.90
2024-02-24T05:36:32.349Z,99.90
2024-02-24T05:39:00.425Z,99.90
2024-02-24T05:41:28.504Z,99.90
2024-02-24T05:43:56.466Z,99.90
2024-02-24T05:46:24.447Z,99.90
2024-02-24T05:48:52.547Z,99.90
2024-02-24T05:51:22.662Z,99.90
2024-02-24T05:53:51.114Z,99.90
2024-02-24T05:56:19.448Z,99.90
2024-02-24T05:58:47.438Z,99.90
2024-02-24T06:01:16.221Z,99.90
2024-02-24T06:03:44.456Z,99.90
2024-02-24T06:06:12.665Z,99.90
2024-02-24T06:08:42.167Z,99.90
2024-02-24T06:11:10.270Z,99.90
2024-02-24T06:13:38.268Z,99.90
2024-02-24T06:16:06.814Z,99.90
2024-02-24T06:18:35.080Z,99.90
2024-02-24T06:21:04.234Z,99.90
2024-02-24T06:23:32.432Z,99.90
2024-02-24T06:26:01.987Z,99.90
2024-02-24T06:28:29.978Z,99.90
2024-02-24T06:30:58.868Z,99.90
2024-02-24T06:33:27.002Z,99.90
2024-02-24T06:35:55.197Z,99.90
2024-02-24T06:38:23.307Z,99.90
2024-02-24T06:40:51.386Z,99.90
2024-02-24T06:43:20.750Z,99.90
2024-02-24T06:45:48.785Z,99.90
2024-02-24T06:48:18.322Z,99.90
2024-02-24T06:50:46.457Z,99.90
2024-02-24T06:53:14.805Z,99.90
2024-02-24T06:55:43.173Z,99.90
2024-02-24T06:58:11.202Z,99.90
2024-02-24T07:00:40.597Z,99.90
2024-02-24T07:03:08.749Z,99.90
2024-02-24T07:05:36.788Z,99.90
2024-02-24T07:08:05.317Z,99.90
2024-02-24T07:10:33.303Z,99.90
2024-02-24T07:13:01.262Z,99.90
2024-02-24T07:15:29.366Z,99.90
2024-02-24T07:17:58.916Z,99.90
2024-02-24T07:20:27.055Z,99.90
2024-02-24T07:22:55.102Z,99.90
2024-02-24T07:25:23.051Z,99.90
2024-02-24T07:27:51.291Z,99.90
2024-02-24T07:30:19.349Z,99.90
2024-02-24T07:32:47.874Z,99.90
2024-02-24T07:35:17.379Z,99.90
2024-02-24T07:37:45.409Z,99.90
2024-02-24T07:40:14.234Z,99.90
2024-02-24T07:42:42.165Z,99.90
2024-02-24T07:45:10.751Z,99.90
2024-02-24T07:47:39.074Z,99.90
2024-02-24T07:50:08.920Z,99.90
2024-02-24T07:52:39.192Z,99.90
2024-02-24T07:55:08.303Z,99.90
2024-02-24T07:57:36.274Z,99.90
2024-02-24T08:00:05.949Z,99.90
2024-02-24T08:02:34.185Z,99.90
2024-02-24T08:05:02.400Z,99.90
2024-02-24T08:07:30.485Z,99.90
2024-02-24T08:09:59.903Z,99.90
2024-02-24T08:12:28.182Z,98.90
2024-02-24T08:14:56.560Z,96.90
2024-02-24T08:17:24.662Z,96.70
2024-02-24T08:19:52.680Z,93.80
2024-02-24T08:22:20.658Z,94.20
2024-02-24T08:24:48.676Z,91.70
2024-02-24T08:27:18.099Z,90.70
2024-02-24T08:29:46.206Z,90.10
2024-02-24T08:32:14.370Z,90.30
2024-02-24T08:34:42.412Z,90.40
2024-02-24T08:37:10.440Z,88.80
2024-02-24T08:39:38.464Z,89.40
2024-02-24T08:42:06.926Z,83.90
2024-02-24T08:44:36.354Z,81.00
2024-02-24T08:47:04.786Z,80.70
2024-02-24T08:49:32.882Z,78.20
2024-02-24T08:52:00.891Z,72.60
2024-02-24T08:54:28.851Z,69.80
2024-02-24T08:56:56.910Z,69.10
2024-02-24T08:59:24.975Z,72.30
2024-02-24T09:01:55.299Z,77.50
2024-02-24T09:04:23.380Z,80.10
2024-02-24T09:06:51.582Z,82.00
2024-02-24T09:09:19.675Z,82.60
2024-02-24T09:11:48.729Z,86.10
2024-02-24T09:14:17.011Z,87.50
2024-02-24T09:16:45.044Z,88.70
2024-02-24T09:19:14.499Z,89.20
2024-02-24T09:21:45.890Z,89.40
2024-02-24T09:24:13.882Z,88.40
2024-02-24T09:26:41.916Z,85.10
2024-02-24T09:29:10.070Z,84.60
2024-02-24T09:31:38.794Z,84.80
2024-02-24T09:34:07.589Z,82.90
2024-02-24T09:36:41.186Z,80.80
2024-02-24T09:39:09.250Z,80.60
2024-02-24T09:41:37.301Z,77.70
2024-02-24T09:44:06.466Z,76.10
2024-02-24T09:46:37.682Z,76.00
2024-02-24T09:49:06.792Z,77.40
2024-02-24T09:51:36.346Z,77.60
2024-02-24T09:54:06.037Z,76.80
2024-02-24T09:56:36.084Z,74.10
2024-02-24T09:59:05.514Z,74.10
2024-02-24T10:01:37.089Z,74.10
2024-02-24T10:04:05.503Z,72.50
2024-02-24T10:06:36.169Z,74.00
2024-02-24T10:09:05.747Z,74.30
2024-02-24T10:11:35.402Z,72.10
2024-02-24T10:14:03.460Z,70.80
2024-02-24T10:16:31.522Z,69.70
2024-02-24T10:19:02.431Z,70.90
2024-02-24T10:21:30.739Z,71.30
2024-02-24T10:23:58.926Z,70.20
2024-02-24T10:26:29.111Z,69.50
2024-02-24T10:28:57.412Z,68.30
2024-02-24T10:31:28.242Z,66.40
2024-02-24T10:33:56.843Z,67.90
2024-02-24T10:36:27.727Z,69.90
2024-02-24T10:38:56.767Z,70.60
2024-02-24T10:41:27.102Z,71.00
2024-02-24T10:44:10.561Z,72.30
2024-02-24T10:46:46.768Z,73.10
2024-02-24T10:49:14.948Z,75.30
2024-02-24T10:51:47.463Z,75.70
2024-02-24T10:54:21.744Z,75.60
2024-02-24T10:56:55.395Z,71.40
2024-02-24T10:59:30.794Z,68.90
2024-02-24T11:02:03.858Z,68.70
2024-02-24T11:04:35.952Z,68.50
2024-02-24T11:07:07.285Z,66.60
2024-02-24T11:09:37.340Z,65.40
2024-02-24T11:12:11.057Z,66.30
2024-02-24T11:14:42.424Z,66.10
2024-02-24T11:17:12.781Z,65.40
2024-02-24T11:19:48.893Z,63.90
2024-02-24T11:22:20.584Z,63.70
2024-02-24T11:25:01.232Z,64.50
2024-02-24T11:27:32.997Z,65.00
2024-02-24T11:30:40.613Z,68.80
2024-02-24T11:33:23.664Z,70.30
2024-02-24T11:35:54.938Z,72.70
2024-02-24T11:38:27.471Z,69.90
2024-02-24T11:40:56.053Z,66.10
2024-02-24T11:43:24.110Z,65.90
2024-02-24T11:45:55.407Z,66.70
2024-02-24T11:48:24.639Z,65.20
2024-02-24T11:50:54.409Z,64.00
2024-02-24T11:53:22.627Z,59.60
2024-02-24T11:55:51.109Z,62.60
2024-02-24T11:58:19.488Z,61.40
2024-02-24T12:00:47.646Z,61.70
2024-02-24T12:03:18.047Z,60.70
2024-02-24T12:05:47.111Z,60.90
2024-02-24T12:08:18.673Z,61.60
2024-02-24T12:10:47.205Z,62.90
2024-02-24T12:13:16.070Z,64.10
2024-02-24T12:15:47.915Z,63.30
2024-02-24T12:18:17.485Z,64.50
2024-02-24T12:20:49.268Z,65.80
2024-02-24T12:23:18.616Z,66.50
2024-02-24T12:25:48.518Z,66.10
2024-02-24T12:28:17.419Z,67.90
2024-02-24T12:30:46.725Z,67.80
2024-02-24T12:33:19.115Z,67.40
2024-02-24T12:35:49.983Z,66.90
2024-02-24T12:38:18.723Z,66.50
2024-02-24T12:40:47.292Z,67.90
2024-02-24T12:43:15.675Z,69.60
2024-02-24T12:45:43.674Z,69.60
2024-02-24T12:48:12.178Z,69.30
2024-02-24T12:50:42.986Z,71.00
2024-02-24T12:53:11.541Z,72.30
2024-02-24T12:55:39.622Z,74.40
2024-02-24T12:58:07.678Z,74.00
2024-02-24T13:00:35.678Z,75.00
2024-02-24T13:03:04.198Z,73.20
2024-02-24T13:05:32.384Z,74.00
2024-02-24T13:08:01.936Z,74.20
2024-02-24T13:10:29.926Z,72.20
2024-02-24T13:13:00.166Z,71.10
2024-02-24T13:15:29.736Z,73.20
2024-02-24T13:17:57.840Z,71.80
2024-02-24T13:20:26.073Z,71.10
2024-02-24T13:22:54.082Z,71.40
2024-02-24T13:25:24.099Z,71.40
2024-02-24T13:27:52.152Z,72.90
2024-02-24T13:30:21.936Z,73.80
2024-02-24T13:32:50.673Z,76.80
2024-02-24T13:35:18.831Z,78.50
2024-02-24T13:37:46.912Z,75.30
2024-02-24T13:40:15.198Z,77.50
2024-02-24T13:42:45.528Z,79.60
2024-02-24T13:45:13.603Z,77.80
2024-02-24T13:47:41.629Z,79.60
2024-02-24T13:50:13.112Z,81.20
2024-02-24T13:52:41.128Z,83.10
2024-02-24T13:55:09.663Z,83.70
2024-02-24T13:57:37.815Z,82.70
2024-02-24T14:00:12.111Z,82.50
2024-02-24T14:02:44.165Z,83.60
2024-02-24T14:05:13.998Z,83.90
2024-02-24T14:07:42.491Z,84.80
2024-02-24T14:10:11.024Z,85.90
2024-02-24T14:12:39.473Z,87.80
2024-02-24T14:15:11.373Z,87.20
2024-02-24T14:17:39.694Z,85.10
2024-02-24T14:20:19.542Z,86.50
2024-02-24T14:22:53.217Z,86.50
2024-02-24T14:25:21.294Z,84.80
2024-02-24T14:27:50.845Z,84.30
2024-02-24T14:30:20.451Z,87.00
2024-02-24T14:32:48.733Z,87.30
2024-02-24T14:35:22.907Z,88.90
2024-02-24T14:37:50.906Z,90.60
2024-02-24T14:40:19.521Z,90.90
2024-02-24T14:42:48.441Z,91.00
2024-02-24T14:45:18.732Z,91.30
2024-02-24T14:47:48.202Z,91.50
2024-02-24T14:50:16.344Z,91.20
2024-02-24T14:52:44.433Z,91.40
2024-02-24T14:55:13.139Z,91.60
2024-02-24T14:57:41.225Z,91.10
2024-02-24T15:00:14.252Z,91.10
2024-02-24T15:02:52.265Z,91.60
2024-02-24T15:05:29.217Z,91.50
2024-02-24T15:07:58.201Z,91.10
2024-02-24T15:10:26.252Z,91.40
2024-02-24T15:12:54.266Z,92.10
2024-02-24T15:15:22.324Z,92.50
2024-02-24T15:17:53.619Z,92.00
2024-02-24T15:20:21.222Z,91.90
2024-02-24T15:22:52.018Z,92.00
2024-02-24T15:25:20.395Z,92.20
2024-02-24T15:27:48.537Z,92.70
2024-02-24T15:30:19.096Z,92.50
2024-02-24T15:32:47.130Z,92.40
2024-02-24T15:35:15.309Z,92.30
2024-02-24T15:37:44.503Z,92.70
2024-02-24T15:40:14.557Z,93.20
2024-02-24T15:42:42.601Z,94.00
2024-02-24T15:45:10.978Z,94.50
2024-02-24T15:47:39.255Z,95.20
2024-02-24T15:50:08.331Z,95.30
2024-02-24T15:52:39.746Z,95.30
2024-02-24T15:55:08.627Z,96.10
2024-02-24T15:57:38.942Z,96.30
2024-02-24T16:00:08.626Z,96.50
2024-02-24T16:02:37.137Z,97.10
2024-02-24T16:05:05.527Z,97.50
2024-02-24T16:07:33.513Z,98.40
2024-02-24T16:10:01.515Z,98.80
2024-02-24T16:12:29.908Z,99.20
2024-02-24T16:14:59.389Z,99.80
2024-02-24T16:17:27.957Z,99.90
2024-02-24T16:19:56.068Z,99.90
2024-02-24T16:22:24.485Z,99.90
2024-02-24T16:24:52.551Z,99.90
2024-02-24T16:27:20.545Z,99.90
2024-02-24T16:29:48.558Z,99.90
2024-02-24T16:32:18.006Z,99.90
2024-02-24T16:34:47.174Z,99.90
2024-02-24T16:37:15.553Z,99.90
2024-02-24T16:39:43.578Z,99.90
2024-02-24T16:42:11.573Z,99.90
2024-02-24T16:44:39.582Z,99.90
2024-02-24T16:47:07.680Z,99.90
2024-02-24T16:49:37.067Z,99.90
2024-02-24T16:52:06.191Z,99.90
2024-02-24T16:54:36.597Z,99.90
2024-02-24T16:57:06.719Z,99.90
2024-02-24T16:59:34.852Z,99.90
2024-02-24T17:02:04.787Z,99.90
2024-02-24T17:04:33.065Z,99.90
2024-02-24T17:07:04.289Z,99.90
2024-02-24T17:09:33.750Z,99.90
2024-02-24T17:12:03.791Z,99.90
2024-02-24T17:14:32.101Z,99.90
2024-02-24T17:17:00.209Z,99.90
2024-02-24T17:19:28.405Z,99.90
2024-02-24T17:21:56.449Z,99.90
2024-02-24T17:24:25.844Z,99.90
2024-02-24T17:26:56.331Z,99.90
2024-02-24T17:29:25.872Z,99.90
2024-02-24T17:31:53.945Z,99.90
2024-02-24T17:34:22.358Z,99.90
2024-02-24T17:36:50.668Z,99.90
2024-02-24T17:39:21.172Z,99.90
2024-02-24T17:41:51.882Z,99.90
2024-02-24T17:44:20.828Z,99.90
2024-02-24T17:46:48.972Z,99.90
2024-02-24T17:49:17.516Z,99.90
2024-02-24T17:51:45.582Z,99.90
2024-02-24T17:54:13.619Z,99.90
2024-02-24T17:56:41.808Z,99.90
2024-02-24T17:59:11.149Z,99.90
2024-02-24T18:01:39.209Z,99.90
2024-02-24T18:04:07.291Z,99.90
2024-02-24T18:06:35.478Z,99.90
2024-02-24T18:09:03.683Z,99.90
2024-02-24T18:11:32.961Z,99.90
2024-02-24T18:14:01.009Z,99.90
2024-02-24T18:16:30.364Z,99.90
2024-02-24T18:18:58.510Z,99.90
2024-02-24T18:21:26.576Z,99.90
2024-02-24T18:23:54.902Z,99.90
2024-02-24T18:26:22.981Z,99.90
2024-02-24T18:28:50.989Z,99.90
2024-02-24T18:31:19.013Z,99.90
2024-02-24T18:33:48.575Z,99.90
2024-02-24T18:36:16.901Z,99.90
2024-02-24T18:38:48.974Z,99.90
2024-02-24T18:41:17.053Z,99.90
2024-02-24T18:43:45.455Z,99.90
2024-02-24T18:46:13.684Z,99.90
2024-02-24T18:48:42.038Z,99.90
2024-02-24T18:51:11.652Z,99.90
2024-02-24T18:53:40.829Z,99.90
2024-02-24T18:56:09.747Z,99.90
2024-02-24T18:58:37.938Z,99.90
2024-02-24T19:01:06.723Z,99.90
2024-02-24T19:03:34.867Z,99.90
2024-02-24T19:06:03.719Z,99.90
2024-02-24T19:08:33.302Z,99.90
2024-02-24T19:11:01.517Z,99.90
2024-02-24T19:13:29.549Z,99.90
2024-02-24T19:15:58.546Z,99.90
2024-02-24T19:18:26.680Z,99.90
2024-02-24T19:20:54.951Z,99.90
2024-02-24T19:23:23.458Z,99.90
2024-02-24T19:25:53.033Z,99.90
2024-02-24T19:28:21.109Z,99.90
2024-02-24T19:30:49.138Z,99.90
2024-02-24T19:33:17.850Z,99.90
2024-02-24T19:35:48.113Z,99.90
2024-02-24T19:38:16.225Z,99.90
2024-02-24T19:40:44.340Z,99.90
2024-02-24T19:43:14.069Z,99.90
2024-02-24T19:45:43.071Z,99.90
2024-02-24T19:48:12.393Z,99.90
2024-02-24T19:50:40.707Z,99.90
2024-02-24T19:53:08.983Z,99.90
2024-02-24T19:55:37.100Z,99.90
2024-02-24T19:58:14.072Z,99.90
2024-02-24T20:00:50.838Z,99.90
2024-02-24T20:03:18.820Z,99.90
2024-02-24T20:05:46.969Z,99.90
2024-02-24T20:08:15.143Z,99.90
2024-02-24T20:10:43.380Z,99.90
2024-02-24T20:13:11.669Z,99.90
2024-02-24T20:15:39.917Z,99.90
2024-02-24T20:18:09.443Z,99.90
2024-02-24T20:20:37.458Z,99.90
2024-02-24T20:23:05.973Z,99.90
2024-02-24T20:25:33.914Z,99.90
2024-02-24T20:28:03.880Z,99.90
2024-02-24T20:30:36.591Z,99.90
2024-02-24T20:33:05.110Z,99.90
2024-02-24T20:35:34.618Z,99.90
2024-02-24T20:38:02.696Z,99.90
2024-02-24T20:40:30.725Z,99.90
2024-02-24T20:42:59.011Z,99.90
2024-02-24T20:45:26.965Z,99.90
2024-02-24T20:47:55.076Z,99.90
2024-02-24T20:50:25.638Z,99.90
2024-02-24T20:52:57.390Z,99.90
2024-02-24T20:55:26.297Z,99.90
2024-02-24T20:57:55.178Z,99.90
2024-02-24T21:00:23.169Z,99.90
2024-02-24T21:02:51.707Z,99.90
2024-02-24T21:05:20.986Z,99.90
2024-02-24T21:07:51.935Z,99.90
2024-02-24T21:10:21.472Z,99.90
2024-02-24T21:12:49.620Z,99.90
2024-02-24T21:15:18.038Z,99.90
2024-02-24T21:17:46.107Z,99.90
2024-02-24T21:20:14.847Z,99.90
2024-02-24T21:22:44.268Z,99.90
2024-02-24T21:25:13.196Z,99.90
2024-02-24T21:27:42.844Z,99.90
2024-02-24T21:30:12.443Z,99.90
2024-02-24T21:32:41.017Z,99.90
2024-02-24T21:35:11.393Z,99.90
2024-02-24T21:37:39.745Z,99.90
2024-02-24T21:40:09.702Z,99.90
2024-02-24T21:42:40.725Z,99.90
2024-02-24T21:45:12.681Z,99.90
2024-02-24T21:47:43.220Z,99.90
2024-02-24T21:50:14.215Z,99.90
2024-02-24T21:52:42.330Z,99.90
2024-02-24T21:55:10.892Z,99.90
2024-02-24T21:57:42.455Z,99.90
2024-02-24T22:00:16.707Z,99.90
2024-02-24T22:02:46.537Z,99.90
2024-02-24T22:05:14.706Z,99.90
2024-02-24T22:07:42.784Z,99.90
2024-02-24T22:10:12.027Z,99.90
2024-02-24T22:12:40.651Z,99.90
2024-02-24T22:15:12.190Z,99.90
2024-02-24T22:17:42.871Z,99.90
2024-02-24T22:20:12.088Z,99.90
2024-02-24T22:22:40.084Z,99.90
2024-02-24T22:25:11.028Z,99.90
2024-02-24T22:27:39.360Z,99.90
2024-02-24T22:30:15.849Z,99.90
2024-02-24T22:32:46.623Z,99.90
2024-02-24T22:35:15.392Z,99.90
2024-02-24T22:37:44.747Z,99.90
2024-02-24T22:40:13.348Z,99.90
2024-02-24T22:42:42.417Z,99.90
2024-02-24T22:45:11.066Z,99.90
2024-02-24T22:47:39.362Z,99.90
2024-02-24T22:50:09.568Z,99.90
2024-02-24T22:52:42.272Z,99.90
2024-02-24T22:55:12.391Z,99.90
2024-02-24T22:57:40.463Z,99.90
2024-02-24T23:00:14.036Z,99.90
2024-02-24T23:02:42.314Z,99.90
2024-02-24T23:05:12.144Z,99.90
2024-02-24T23:07:40.216Z,99.90
2024-02-24T23:10:10.719Z,99.90
2024-02-24T23:12:39.465Z,99.90
2024-02-24T23:15:08.534Z,99.90
2024-02-24T23:17:36.831Z,99.90
2024-02-24T23:20:05.436Z,99.90
2024-02-24T23:22:34.826Z,99.90
2024-02-24T23:25:02.856Z,99.90
2024-02-24T23:27:31.681Z,99.90
2024-02-24T23:32:27.712Z,99.90
2024-02-24T23:34:55.776Z,99.90
2024-02-24T23:37:23.775Z,99.90
2024-02-24T23:39:53.108Z,99.90
2024-02-24T23:42:21.212Z,99.90
2024-02-24T23:44:49.224Z,99.90
2024-02-24T23:47:17.271Z,99.90
2024-02-24T23:49:45.320Z,99.90
2024-02-24T23:52:14.988Z,99.90
2024-02-24T23:54:43.765Z,99.90
2024-02-24T23:57:13.238Z,99.90
2024-02-24T23:59:41.303Z,99.90
